Time;durP1;ratioP1;P1;durP2;ratioP2;P2;SDS_P1;SDS_P2;PMS_P1;PMS_P2;Temp;Humidity;BMP_temperature;BMP_pressure;BME280_temperature;BME280_humidity;BME280_pressure;Samples;Min_cycle;Max_cycle;Signal;HPM_P1;HPM_P2
2022/05/07 00:01:03;;;;;;;15.63;11.27;;;;;;;-144.65;100.00;64500.88;5054756;28;20029;-73
2022/05/07 00:03:29;;;;;;;16.23;11.40;;;;;;;-144.65;100.00;64500.88;5054327;28;20136;-73
2022/05/07 00:05:54;;;;;;;16.98;10.85;;;;;;;-144.65;100.00;64500.88;5054159;28;20032;-73
2022/05/07 00:08:19;;;;;;;13.95;10.77;;;;;;;-144.65;100.00;64500.88;5054234;28;20390;-73
2022/05/07 00:10:45;;;;;;;17.25;11.98;;;;;;;-144.65;100.00;64500.88;5063385;28;20492;-73
2022/05/07 00:13:11;;;;;;;23.48;12.57;;;;;;;-144.65;100.00;64500.88;5074126;28;20043;-73
2022/05/07 00:15:36;;;;;;;16.42;11.20;;;;;;;-144.65;100.00;64500.88;5074112;28;20358;-73
2022/05/07 00:18:03;;;;;;;16.75;11.43;;;;;;;-144.65;100.00;64500.88;5074123;28;20534;-73
2022/05/07 00:20:30;;;;;;;16.55;11.70;;;;;;;-144.65;100.00;64500.88;5074954;28;20029;-73
2022/05/07 00:22:56;;;;;;;17.70;12.38;;;;;;;-144.65;100.00;64500.88;5074519;28;20115;-74
2022/05/07 00:25:22;;;;;;;18.42;12.30;;;;;;;-144.65;100.00;64500.88;5074141;28;20051;-73
2022/05/07 00:27:47;;;;;;;16.35;12.23;;;;;;;-144.65;100.00;64500.88;5074288;28;20469;-73
2022/05/07 00:30:13;;;;;;;19.42;13.40;;;;;;;-144.65;100.00;64500.88;5074149;28;20020;-73
2022/05/07 00:32:38;;;;;;;18.15;12.02;;;;;;;-144.65;100.00;64500.88;5074924;28;20032;-74
2022/05/07 00:35:04;;;;;;;19.90;14.05;;;;;;;-144.65;100.00;64500.88;5075497;28;20028;-77
2022/05/07 00:37:31;;;;;;;21.45;14.02;;;;;;;-144.65;100.00;64500.88;5076860;28;20616;-74
2022/05/07 00:39:57;;;;;;;24.63;15.85;;;;;;;-144.65;100.00;64500.88;5075921;28;20036;-74
2022/05/07 00:42:22;;;;;;;21.83;14.75;;;;;;;-144.65;100.00;64500.88;5074682;28;20039;-74
2022/05/07 00:44:48;;;;;;;22.38;14.73;;;;;;;-144.65;100.00;64500.88;5055043;28;20029;-75
2022/05/07 00:47:34;;;;;;;25.25;15.93;;;;;;;-144.65;100.00;64500.88;5074790;28;20031;-76
2022/05/07 00:52:46;;;;;;;23.65;17.33;;;;;;;-144.65;100.00;64500.88;5054727;28;20067;-74
2022/05/07 00:55:13;;;;;;;22.60;15.13;;;;;;;-144.65;100.00;64500.88;5054855;28;20033;-73
2022/05/07 00:57:39;;;;;;;18.70;13.70;;;;;;;-144.65;100.00;64500.88;5053712;28;20104;-74
2022/05/07 01:00:06;;;;;;;19.30;12.52;;;;;;;-144.65;100.00;64500.88;5053825;28;20058;-73
2022/05/07 01:02:32;;;;;;;20.45;13.73;;;;;;;-144.65;100.00;64500.88;5066526;28;20021;-74
2022/05/07 01:04:57;;;;;;;23.33;15.40;;;;;;;-144.65;100.00;64500.88;5072158;28;20056;-74
2022/05/07 01:07:23;;;;;;;24.63;16.23;;;;;;;-144.65;100.00;64500.88;5072986;28;20443;-74
2022/05/07 01:09:48;;;;;;;20.73;15.32;;;;;;;-144.65;100.00;64500.88;5072484;28;20461;-73
2022/05/07 01:12:14;;;;;;;19.67;14.43;;;;;;;-144.65;100.00;64500.88;5072648;28;20036;-74
2022/05/07 01:14:39;;;;;;;20.80;13.52;;;;;;;-144.65;100.00;64500.88;5075149;28;20029;-74
2022/05/07 01:17:09;;;;;;;23.00;13.07;;;;;;;-144.65;100.00;64500.88;5076103;28;20047;-73
2022/05/07 01:19:34;;;;;;;21.73;13.23;;;;;;;-144.65;100.00;64500.88;5073727;28;20031;-75
2022/05/07 01:22:01;;;;;;;17.40;13.70;;;;;;;-144.65;100.00;64500.88;5072774;28;20028;-75
2022/05/07 01:24:27;;;;;;;21.38;13.65;;;;;;;-144.65;100.00;64500.88;5054524;28;20036;-73
2022/05/07 01:26:52;;;;;;;19.73;13.35;;;;;;;-144.65;100.00;64500.88;5069240;28;20025;-73
2022/05/07 01:29:17;;;;;;;18.27;12.85;;;;;;;-144.65;100.00;64500.88;5069844;28;20036;-73
2022/05/07 01:31:43;;;;;;;18.83;12.82;;;;;;;-144.65;100.00;64500.88;5052039;28;20033;-73
2022/05/07 01:34:08;;;;;;;17.15;12.38;;;;;;;-144.65;100.00;64500.88;5051452;28;20397;-74
2022/05/07 01:36:33;;;;;;;18.52;13.77;;;;;;;-144.65;100.00;64500.88;5052687;28;20045;-74
2022/05/07 01:38:59;;;;;;;19.60;13.65;;;;;;;-144.65;100.00;64500.88;5052665;28;20033;-74
2022/05/07 01:41:24;;;;;;;18.55;12.18;;;;;;;-144.65;100.00;64500.88;5054556;28;20527;-74
2022/05/07 01:43:50;;;;;;;21.15;13.00;;;;;;;-144.65;100.00;64500.88;5072574;28;20020;-74
2022/05/07 01:49:00;;;;;;;18.33;12.55;;;;;;;-144.65;100.00;64500.88;5071412;28;20063;-74
2022/05/07 01:51:27;;;;;;;20.45;13.43;;;;;;;-144.65;100.00;64500.88;5072022;28;20044;-74
2022/05/07 01:53:53;;;;;;;18.95;13.05;;;;;;;-144.65;100.00;64500.88;5072228;28;20095;-74
2022/05/07 01:56:18;;;;;;;18.80;12.57;;;;;;;-144.65;100.00;64500.88;5071471;28;20431;-74
2022/05/07 01:58:45;;;;;;;19.52;12.50;;;;;;;-144.65;100.00;64500.88;5070204;28;20058;-74
2022/05/07 02:01:10;;;;;;;20.70;12.90;;;;;;;-144.65;100.00;64500.88;5072296;28;20178;-73
2022/05/07 02:03:37;;;;;;;19.05;13.07;;;;;;;-144.65;100.00;64500.88;5071526;28;20548;-73
2022/05/07 02:06:03;;;;;;;19.30;12.82;;;;;;;-144.65;100.00;64500.88;5071985;28;20116;-73
2022/05/07 02:08:28;;;;;;;19.95;13.70;;;;;;;-144.65;100.00;64500.88;5072370;28;20095;-74
2022/05/07 02:10:54;;;;;;;21.80;13.57;;;;;;;-144.65;100.00;64500.88;5071335;28;20052;-74
2022/05/07 02:13:19;;;;;;;23.92;13.30;;;;;;;-144.65;100.00;64500.88;5072105;28;20056;-74
2022/05/07 02:15:45;;;;;;;18.60;13.40;;;;;;;-144.65;100.00;64500.88;5071367;28;20063;-73
2022/05/07 02:18:10;;;;;;;18.08;12.90;;;;;;;-144.65;100.00;64500.88;5071750;28;20025;-80
2022/05/07 02:20:36;;;;;;;18.13;11.90;;;;;;;-144.65;100.00;64500.88;5072397;28;20024;-74
2022/05/07 02:23:01;;;;;;;18.75;12.30;;;;;;;-144.65;100.00;64500.88;5072550;28;20031;-73
2022/05/07 02:25:26;;;;;;;17.83;11.98;;;;;;;-144.65;100.00;64500.88;5071978;28;20385;-74
2022/05/07 02:27:53;;;;;;;15.82;11.88;;;;;;;-144.65;100.00;64500.88;5070817;28;20025;-75
2022/05/07 02:30:19;;;;;;;19.02;12.05;;;;;;;-144.65;100.00;64500.88;5071414;28;20021;-74
2022/05/07 02:32:48;;;;;;;15.95;11.70;;;;;;;-144.65;100.00;64500.88;5070729;28;20024;-75
2022/05/07 02:35:13;;;;;;;15.60;11.73;;;;;;;-144.65;100.00;64500.88;5071655;28;20190;-74
2022/05/07 02:37:39;;;;;;;16.75;11.50;;;;;;;-144.65;100.00;64500.88;5071614;28;20468;-74
2022/05/07 02:40:05;;;;;;;18.00;12.45;;;;;;;-144.65;100.00;64500.88;5071528;28;20021;-74
2022/05/07 02:42:33;;;;;;;14.73;10.77;;;;;;;-144.65;100.00;64500.88;5071272;28;20071;-74
2022/05/07 02:45:03;;;;;;;18.45;12.43;;;;;;;-144.65;100.00;64500.88;5071465;28;20029;-74
2022/05/07 02:47:29;;;;;;;16.92;11.95;;;;;;;-144.65;100.00;64500.88;5071140;28;21558;-76
2022/05/07 02:49:55;;;;;;;17.42;12.23;;;;;;;-144.65;100.00;64500.88;5058136;28;20120;-74
2022/05/07 02:52:21;;;;;;;16.25;11.63;;;;;;;-144.65;100.00;64500.88;5061763;28;20036;-75
2022/05/07 02:54:46;;;;;;;16.48;11.93;;;;;;;-144.65;100.00;64500.88;5071237;28;20473;-74
2022/05/07 02:57:12;;;;;;;16.85;11.80;;;;;;;-144.65;100.00;64500.88;5052068;28;20029;-74
2022/05/07 02:59:38;;;;;;;22.25;12.77;;;;;;;-144.65;100.00;64500.88;5051036;28;20035;-74
2022/05/07 03:02:04;;;;;;;20.90;11.65;;;;;;;-144.65;100.00;64500.88;5053329;28;20025;-73
2022/05/07 03:04:30;;;;;;;15.55;11.75;;;;;;;-144.65;100.00;64500.88;5056174;28;20090;-74
2022/05/07 03:06:55;;;;;;;17.58;12.30;;;;;;;-144.65;100.00;64500.88;5053605;28;20025;-74
2022/05/07 03:09:20;;;;;;;17.60;12.05;;;;;;;-144.65;100.00;64500.88;5068027;28;20028;-73
2022/05/07 03:11:46;;;;;;;14.55;10.60;;;;;;;-144.65;100.00;64500.88;5070525;28;20046;-74
2022/05/07 03:14:12;;;;;;;15.50;10.75;;;;;;;-144.65;100.00;64500.88;5070562;28;20055;-75
2022/05/07 03:16:38;;;;;;;16.33;11.70;;;;;;;-144.65;100.00;64500.88;5070514;28;20017;-74
2022/05/07 03:19:05;;;;;;;16.33;12.20;;;;;;;-144.65;100.00;64500.88;5070478;28;20468;-73
2022/05/07 03:21:30;;;;;;;17.90;12.10;;;;;;;-144.65;100.00;64500.88;5070954;28;20476;-77
2022/05/07 03:23:56;;;;;;;15.52;12.40;;;;;;;-144.65;100.00;64500.88;5070655;28;20052;-73
2022/05/07 03:26:24;;;;;;;16.33;10.90;;;;;;;-144.65;100.00;64500.88;5070543;28;20020;-73
2022/05/07 03:28:50;;;;;;;16.33;11.55;;;;;;;-144.65;100.00;64500.88;5070620;28;20123;-74
2022/05/07 03:31:18;;;;;;;14.40;10.48;;;;;;;-144.65;100.00;64500.88;5070811;28;20115;-74
2022/05/07 03:33:44;;;;;;;16.67;10.30;;;;;;;-144.65;100.00;64500.88;5070630;28;20025;-74
2022/05/07 03:36:09;;;;;;;13.27;9.88;;;;;;;-144.65;100.00;64500.88;5070457;28;20370;-75
2022/05/07 03:38:34;;;;;;;12.63;9.15;;;;;;;-144.65;100.00;64500.88;5070327;28;20025;-75
2022/05/07 03:41:01;;;;;;;13.35;9.82;;;;;;;-144.65;100.00;64500.88;5070380;28;20016;-75
2022/05/07 03:43:26;;;;;;;12.93;9.75;;;;;;;-144.65;100.00;64500.88;5070540;28;20111;-75
2022/05/07 03:45:52;;;;;;;13.85;9.30;;;;;;;-144.65;100.00;64500.88;5053350;28;20459;-74
2022/05/07 03:48:17;;;;;;;13.32;9.57;;;;;;;-144.65;100.00;64500.88;5051006;28;20021;-75
2022/05/07 03:50:43;;;;;;;13.23;9.30;;;;;;;-144.65;100.00;64500.88;5050413;28;20033;-74
2022/05/07 03:55:52;;;;;;;13.85;10.05;;;;;;;-144.65;100.00;64500.88;5050227;28;20067;-74
2022/05/07 03:58:18;;;;;;;14.70;9.77;;;;;;;-144.65;100.00;64500.88;5050471;28;20056;-74
2022/05/07 04:00:44;;;;;;;14.68;9.55;;;;;;;-144.65;100.00;64500.88;5050609;28;20025;-74
2022/05/07 04:03:10;;;;;;;14.90;9.90;;;;;;;-144.65;100.00;64500.88;5048975;28;20079;-74
2022/05/07 04:05:36;;;;;;;13.57;10.07;;;;;;;-144.65;100.00;64500.88;5050291;28;20021;-73
2022/05/07 04:08:01;;;;;;;14.48;9.95;;;;;;;-144.65;100.00;64500.88;5050293;28;20385;-75
2022/05/07 04:10:26;;;;;;;14.00;10.55;;;;;;;-144.65;100.00;64500.88;5052114;28;20037;-74
2022/05/07 04:12:52;;;;;;;20.15;10.55;;;;;;;-144.65;100.00;64500.88;5053559;28;20032;-75
2022/05/07 04:15:18;;;;;;;16.77;10.15;;;;;;;-144.65;100.00;64500.88;5052608;28;20049;-73
2022/05/07 04:17:44;;;;;;;15.98;10.57;;;;;;;-144.65;100.00;64500.88;5033332;28;20028;-74
2022/05/07 04:20:10;;;;;;;13.02;9.57;;;;;;;-144.65;100.00;64500.88;5030254;28;20017;-74
2022/05/07 04:22:36;;;;;;;13.95;10.10;;;;;;;-144.65;100.00;64500.88;5042031;28;20032;-74
2022/05/07 04:25:03;;;;;;;15.05;10.30;;;;;;;-144.65;100.00;64500.88;5050511;28;20021;-73
2022/05/07 04:27:28;;;;;;;16.65;10.00;;;;;;;-144.65;100.00;64500.88;5050414;28;20021;-73
2022/05/07 04:29:54;;;;;;;13.63;10.05;;;;;;;-144.65;100.00;64500.88;5050293;28;20020;-76
2022/05/07 04:32:19;;;;;;;14.05;9.75;;;;;;;-144.65;100.00;64500.88;5050817;28;20037;-73
2022/05/07 04:34:45;;;;;;;12.57;9.93;;;;;;;-144.65;100.00;64500.88;5050257;28;20111;-74
2022/05/07 04:37:10;;;;;;;13.50;9.52;;;;;;;-144.65;100.00;64500.88;5050238;28;20497;-74
2022/05/07 04:39:35;;;;;;;13.85;9.82;;;;;;;-144.65;100.00;64500.88;5052179;28;20406;-73
2022/05/07 04:42:02;;;;;;;14.18;10.13;;;;;;;-144.65;100.00;64500.88;5053886;28;20115;-75
2022/05/07 04:44:28;;;;;;;13.23;9.85;;;;;;;-144.65;100.00;64500.88;5053873;28;20036;-74
2022/05/07 04:46:53;;;;;;;15.63;9.88;;;;;;;-144.65;100.00;64500.88;5052896;28;20029;-74
2022/05/07 04:49:19;;;;;;;15.50;10.75;;;;;;;-144.65;100.00;64500.88;5053789;28;20021;-73
2022/05/07 04:51:47;;;;;;;15.77;10.40;;;;;;;-144.65;100.00;64500.88;5053443;28;20021;-74
2022/05/07 04:54:13;;;;;;;15.18;10.48;;;;;;;-144.65;100.00;64500.88;5053810;28;20035;-73
2022/05/07 04:56:38;;;;;;;13.98;10.38;;;;;;;-144.65;100.00;64500.88;5053744;28;20025;-74
2022/05/07 04:59:04;;;;;;;14.27;10.27;;;;;;;-144.65;100.00;64500.88;5053824;28;20053;-74
2022/05/07 05:01:30;;;;;;;13.40;10.23;;;;;;;-144.65;100.00;64500.88;5054522;28;20041;-74
2022/05/07 05:03:55;;;;;;;21.13;14.10;;;;;;;-144.65;100.00;64500.88;5053980;28;20069;-74
2022/05/07 05:06:20;;;;;;;27.52;19.00;;;;;;;-144.65;100.00;64500.88;5051971;28;20438;-74
2022/05/07 05:08:46;;;;;;;16.48;12.00;;;;;;;-144.65;100.00;64500.88;5053956;28;20096;-75
2022/05/07 05:11:11;;;;;;;18.45;13.55;;;;;;;-144.65;100.00;64500.88;5054381;28;20375;-75
2022/05/07 05:13:36;;;;;;;52.25;32.92;;;;;;;-144.65;100.00;64500.88;5042312;28;20033;-74
2022/05/07 05:16:02;;;;;;;17.92;11.10;;;;;;;-144.65;100.00;64500.88;5078709;28;20032;-77
2022/05/07 05:18:28;;;;;;;33.38;20.95;;;;;;;-144.65;100.00;64500.88;5071043;28;20021;-73
2022/05/07 05:20:53;;;;;;;17.30;12.13;;;;;;;-144.65;100.00;64500.88;5053863;28;20033;-73
2022/05/07 05:23:19;;;;;;;14.63;11.10;;;;;;;-144.65;100.00;64500.88;5053655;28;20029;-74
2022/05/07 05:25:45;;;;;;;16.73;11.68;;;;;;;-144.65;100.00;64500.88;5053842;28;20367;-74
2022/05/07 05:28:11;;;;;;;13.77;10.25;;;;;;;-144.65;100.00;64500.88;5053657;28;20068;-74
2022/05/07 05:30:37;;;;;;;22.63;15.02;;;;;;;-144.65;100.00;64500.88;5061210;28;20086;-74
2022/05/07 05:33:03;;;;;;;13.50;9.77;;;;;;;-144.65;100.00;64500.88;5078374;28;20033;-75
2022/05/07 05:35:28;;;;;;;16.48;12.57;;;;;;;-144.65;100.00;64500.88;5079778;28;20040;-75
2022/05/07 05:37:54;;;;;;;21.60;12.25;;;;;;;-144.65;100.00;64500.88;5079799;28;20028;-75
2022/05/07 05:40:20;;;;;;;14.60;9.80;;;;;;;-144.65;100.00;64500.88;5079376;28;20024;-75
2022/05/07 05:42:45;;;;;;;15.77;10.95;;;;;;;-144.65;100.00;64500.88;5077600;28;20031;-73
2022/05/07 05:45:11;;;;;;;18.23;13.25;;;;;;;-144.65;100.00;64500.88;5072837;28;20059;-74
2022/05/07 05:47:36;;;;;;;15.98;11.32;;;;;;;-144.65;100.00;64500.88;5072941;28;20032;-75
2022/05/07 05:50:03;;;;;;;14.77;10.48;;;;;;;-144.65;100.00;64500.88;5071279;28;20055;-74
2022/05/07 05:52:28;;;;;;;15.32;11.63;;;;;;;-144.65;100.00;64500.88;5071528;28;20074;-75
2022/05/07 05:54:54;;;;;;;25.88;17.98;;;;;;;-144.65;100.00;64500.88;5074569;28;20442;-73
2022/05/07 05:57:19;;;;;;;16.42;11.30;;;;;;;-144.65;100.00;64500.88;5074868;28;20016;-75
2022/05/07 05:59:45;;;;;;;17.33;10.95;;;;;;;-144.65;100.00;64500.88;5074906;28;20100;-77
2022/05/07 06:02:10;;;;;;;14.20;10.23;;;;;;;-144.65;100.00;64500.88;5076555;28;20016;-75
2022/05/07 06:04:36;;;;;;;15.05;10.30;;;;;;;-144.65;100.00;64500.88;5072178;28;20048;-74
2022/05/07 06:07:01;;;;;;;13.82;10.32;;;;;;;-144.65;100.00;64500.88;5070764;28;20028;-75
2022/05/07 06:09:28;;;;;;;14.60;9.82;;;;;;;-144.65;100.00;64500.88;5049706;28;20074;-74
2022/05/07 06:11:59;;;;;;;14.38;9.52;;;;;;;-144.65;100.00;64500.88;5051422;28;20049;-74
2022/05/07 06:14:25;;;;;;;14.40;10.77;;;;;;;-144.65;100.00;64500.88;5052079;28;20414;-74
2022/05/07 06:16:51;;;;;;;15.38;10.60;;;;;;;-144.65;100.00;64500.88;5051946;28;20063;-74
2022/05/07 06:19:16;;;;;;;14.15;9.50;;;;;;;-144.65;100.00;64500.88;5051875;28;20672;-74
2022/05/07 06:21:42;;;;;;;14.98;9.90;;;;;;;-144.65;100.00;64500.88;5052064;28;20023;-74
2022/05/07 06:29:49;;;;;;;15.27;10.90;;;;;;;-144.65;100.00;64500.88;5028486;28;20029;-75
2022/05/07 06:32:14;;;;;;;14.00;9.60;;;;;;;-144.65;100.00;64500.88;5051721;28;20484;-75
2022/05/07 06:34:40;;;;;;;17.08;11.13;;;;;;;-144.65;100.00;64500.88;5048860;28;20025;-75
2022/05/07 06:37:05;;;;;;;15.32;10.75;;;;;;;-144.65;100.00;64500.88;5046987;28;20067;-76
2022/05/07 06:39:31;;;;;;;14.52;10.18;;;;;;;-144.65;100.00;64500.88;5044531;28;20495;-74
2022/05/07 06:41:57;;;;;;;15.68;10.95;;;;;;;-144.65;100.00;64500.88;5041355;28;20091;-74
2022/05/07 06:44:29;;;;;;;14.48;9.98;;;;;;;-144.65;100.00;64500.88;5041326;28;20021;-75
2022/05/07 06:46:57;;;;;;;16.25;10.52;;;;;;;-144.65;100.00;64500.88;5057637;28;20033;-81
2022/05/07 06:49:26;;;;;;;15.45;11.32;;;;;;;-144.65;100.00;64500.88;5053029;28;20021;-83
2022/05/07 06:51:51;;;;;;;15.45;10.80;;;;;;;-144.65;100.00;64500.88;5063823;28;20030;-81
2022/05/07 06:54:17;;;;;;;15.23;10.40;;;;;;;-144.65;100.00;64500.88;5058265;28;20113;-82
2022/05/07 06:56:43;;;;;;;14.05;10.45;;;;;;;-144.65;100.00;64500.88;5057762;28;20056;-83
2022/05/07 06:59:10;;;;;;;14.20;10.65;;;;;;;-144.65;100.00;64500.88;5056891;28;20021;-83
2022/05/07 07:01:36;;;;;;;13.43;9.13;;;;;;;-144.65;100.00;64500.88;5053968;28;20081;-86
2022/05/07 07:04:03;;;;;;;13.35;10.00;;;;;;;-144.65;100.00;64500.88;5066575;28;20060;-83
2022/05/07 07:06:29;;;;;;;14.82;9.75;;;;;;;-144.65;100.00;64500.88;5053869;28;20041;-86
2022/05/07 07:08:55;;;;;;;15.38;10.68;;;;;;;-144.65;100.00;64500.88;5045525;28;20048;-84
2022/05/07 07:11:20;;;;;;;15.80;10.98;;;;;;;-144.65;100.00;64500.88;5056936;28;20029;-81
2022/05/07 07:13:46;;;;;;;14.07;10.43;;;;;;;-144.65;100.00;64500.88;5059883;28;20186;-88
2022/05/07 07:16:12;;;;;;;20.60;10.85;;;;;;;-144.65;100.00;64500.88;5057317;28;20024;-83
2022/05/07 07:18:37;;;;;;;18.83;10.48;;;;;;;-144.65;100.00;64500.88;5065713;28;20013;-85
2022/05/07 07:21:05;;;;;;;15.15;10.38;;;;;;;-144.65;100.00;64500.88;5063113;28;20110;-82
2022/05/07 07:23:31;;;;;;;14.60;10.13;;;;;;;-144.65;100.00;64500.88;5059783;28;20086;-84
2022/05/07 07:25:57;;;;;;;14.90;10.40;;;;;;;-144.65;100.00;64500.88;5064781;28;20025;-87
2022/05/07 07:28:23;;;;;;;14.23;10.32;;;;;;;-144.65;100.00;64500.88;5057616;28;20036;-81
2022/05/07 07:30:51;;;;;;;16.92;12.52;;;;;;;-144.65;100.00;64500.88;5061746;28;20028;-84
2022/05/07 07:33:17;;;;;;;26.35;16.15;;;;;;;-144.65;100.00;64500.88;5054026;28;20041;-73
2022/05/07 07:35:43;;;;;;;18.38;12.70;;;;;;;-144.65;100.00;64500.88;5049877;28;20032;-77
2022/05/07 07:38:09;;;;;;;15.68;11.77;;;;;;;-144.65;100.00;64500.88;5046630;28;20029;-75
2022/05/07 07:40:35;;;;;;;15.88;11.73;;;;;;;-144.65;100.00;64500.88;5045120;28;20035;-74
2022/05/07 07:43:01;;;;;;;13.93;10.38;;;;;;;-144.65;100.00;64500.88;5049702;28;20036;-75
2022/05/07 07:48:13;;;;;;;14.05;10.63;;;;;;;-144.65;100.00;64500.88;5052193;28;20036;-76
2022/05/07 07:50:44;;;;;;;13.15;9.70;;;;;;;-144.65;100.00;64500.88;5052037;28;20025;-76
2022/05/07 07:53:11;;;;;;;10.70;8.38;;;;;;;-144.65;100.00;64500.88;5048738;28;20029;-75
2022/05/07 07:55:42;;;;;;;11.95;8.75;;;;;;;-144.65;100.00;64500.88;5047718;28;20013;-73
2022/05/07 07:58:12;;;;;;;12.23;8.98;;;;;;;-144.65;100.00;64500.88;5047997;28;20481;-73
2022/05/07 08:00:38;;;;;;;11.23;8.80;;;;;;;-144.65;100.00;64500.88;5047804;28;20029;-73
2022/05/07 08:03:09;;;;;;;13.73;9.48;;;;;;;-144.65;100.00;64500.88;5047831;28;20493;-74
2022/05/07 08:05:45;;;;;;;13.73;8.68;;;;;;;-144.65;100.00;64500.88;5047807;28;20094;-73
2022/05/07 08:13:45;;;;;;;10.45;7.38;;;;;;;-144.65;100.00;64500.88;5048041;28;20036;-75
2022/05/07 08:16:13;;;;;;;10.73;8.13;;;;;;;-144.65;100.00;64500.88;5051708;28;20029;-73
2022/05/07 08:18:41;;;;;;;10.60;7.82;;;;;;;-144.65;100.00;64500.88;5050748;28;20029;-74
2022/05/07 08:21:07;;;;;;;10.00;7.70;;;;;;;-144.65;100.00;64500.88;5050779;28;20489;-74
2022/05/07 08:23:33;;;;;;;9.90;7.25;;;;;;;-144.65;100.00;64500.88;5052205;28;20017;-75
2022/05/07 08:25:58;;;;;;;12.40;8.60;;;;;;;-144.65;100.00;64500.88;5050997;28;20032;-75
2022/05/07 08:28:24;;;;;;;13.02;7.65;;;;;;;-144.65;100.00;64500.88;5050959;28;20033;-75
2022/05/07 08:30:54;;;;;;;14.13;8.45;;;;;;;-144.65;100.00;64500.88;5051814;28;20040;-74
2022/05/07 08:33:20;;;;;;;10.80;7.90;;;;;;;-144.65;100.00;64500.88;5050835;28;20040;-74
2022/05/07 08:35:46;;;;;;;10.15;7.65;;;;;;;-144.65;100.00;64500.88;5051954;28;20033;-75
2022/05/07 08:38:12;;;;;;;10.70;8.43;;;;;;;-144.65;100.00;64500.88;5051874;28;20047;-74
2022/05/07 08:40:40;;;;;;;12.20;8.73;;;;;;;-144.65;100.00;64500.88;5050719;28;20071;-73
2022/05/07 08:43:06;;;;;;;11.65;7.65;;;;;;;-144.65;100.00;64500.88;5051642;28;20063;-74
2022/05/07 08:45:32;;;;;;;11.68;7.13;;;;;;;-144.65;100.00;64500.88;5051618;28;20029;-74
2022/05/07 08:47:59;;;;;;;10.90;7.85;;;;;;;-144.65;100.00;64500.88;5052055;28;20029;-74
2022/05/07 08:50:26;;;;;;;9.90;7.70;;;;;;;-144.65;100.00;64500.88;5052000;28;20385;-74
2022/05/07 08:52:52;;;;;;;10.40;7.85;;;;;;;-144.65;100.00;64500.88;5051702;28;20111;-73
2022/05/07 08:55:19;;;;;;;10.75;8.52;;;;;;;-144.65;100.00;64500.88;5052179;28;20021;-74
2022/05/07 08:57:47;;;;;;;11.40;8.82;;;;;;;-144.65;100.00;64500.88;5050546;28;20405;-76
2022/05/07 09:00:14;;;;;;;10.93;8.13;;;;;;;-144.65;100.00;64500.88;5052190;28;20035;-72
2022/05/07 09:02:46;;;;;;;12.95;9.02;;;;;;;-144.65;100.00;64500.88;5047649;28;20025;-74
2022/05/07 09:05:14;;;;;;;13.25;9.75;;;;;;;-144.65;100.00;64500.88;5046038;28;20497;-75
2022/05/07 09:07:50;;;;;;;14.80;8.32;;;;;;;-144.65;100.00;64500.88;5047760;28;20108;-76
2022/05/07 09:10:16;;;;;;;13.07;6.38;;;;;;;-144.65;100.00;64500.88;5048942;28;20035;-74
2022/05/07 09:12:41;;;;;;;12.10;8.07;;;;;;;-144.65;100.00;64500.88;5050119;28;20389;-74
2022/05/07 09:15:08;;;;;;;13.50;8.55;;;;;;;-144.65;100.00;64500.88;5050251;28;20052;-75
2022/05/07 09:17:35;;;;;;;6.90;5.95;;;;;;;-144.65;100.00;64500.88;5050294;28;20118;-74
2022/05/07 09:20:14;;;;;;;8.32;6.05;;;;;;;-144.65;100.00;64500.88;5047031;28;20473;-74
2022/05/07 09:22:55;;;;;;;9.48;7.18;;;;;;;-144.65;100.00;64500.88;5048600;28;20029;-74
2022/05/07 09:25:28;;;;;;;8.75;6.28;;;;;;;-144.65;100.00;64500.88;5045898;28;20052;-73
2022/05/07 09:27:57;;;;;;;9.45;6.40;;;;;;;-144.65;100.00;64500.88;5050537;28;20021;-72
2022/05/07 09:30:44;;;;;;;8.82;6.68;;;;;;;-144.65;100.00;64500.88;5050936;28;20021;-72
2022/05/07 09:33:09;;;;;;;7.15;5.38;;;;;;;-144.65;100.00;64500.88;5050623;28;20495;-71
2022/05/07 09:35:51;;;;;;;8.10;4.47;;;;;;;-144.65;100.00;64500.88;5053273;28;20100;-72
2022/05/07 09:38:24;;;;;;;18.67;6.78;;;;;;;-144.65;100.00;64500.88;5050967;28;20052;-73
2022/05/07 09:40:51;;;;;;;7.95;5.30;;;;;;;-144.65;100.00;64500.88;5049376;28;20029;-73
2022/05/07 09:43:18;;;;;;;8.35;5.93;;;;;;;-144.65;100.00;64500.88;5046082;28;20067;-74
2022/05/07 09:45:44;;;;;;;9.77;5.65;;;;;;;-144.65;100.00;64500.88;5049125;28;20029;-73
2022/05/07 09:48:12;;;;;;;7.30;4.05;;;;;;;-144.65;100.00;64500.88;5047931;28;20032;-73
2022/05/07 09:58:35;;;;;;;8.80;5.35;;;;;;;-144.65;100.00;64500.88;5044183;28;20843;-74
2022/05/07 10:01:20;;;;;;;7.22;5.28;;;;;;;-144.65;100.00;64500.88;5045465;28;20032;-73
2022/05/07 10:04:23;;;;;;;5.55;4.03;;;;;;;-144.65;100.00;64500.88;5048050;28;20387;-74
2022/05/07 10:06:49;;;;;;;4.90;3.63;;;;;;;-144.65;100.00;64500.88;5047355;28;20037;-73
2022/05/07 10:09:57;;;;;;;4.43;3.30;;;;;;;-144.65;100.00;64500.88;5047309;28;20623;-74
2022/05/07 10:12:26;;;;;;;5.30;3.33;;;;;;;-144.65;100.00;64500.88;5015835;28;21121;-73
2022/05/07 10:14:51;;;;;;;5.88;4.05;;;;;;;-144.65;100.00;64500.88;5046094;28;20037;-73
2022/05/07 10:17:21;;;;;;;6.45;3.58;;;;;;;-144.65;100.00;64500.88;5047238;28;20082;-74
2022/05/07 10:19:49;;;;;;;7.38;4.82;;;;;;;-144.65;100.00;64500.88;5046878;28;20037;-74
2022/05/07 10:22:16;;;;;;;19.10;11.15;;;;;;;-144.65;100.00;64500.88;5047584;28;20033;-73
2022/05/07 10:24:43;;;;;;;14.23;3.90;;;;;;;-144.65;100.00;64500.88;5047531;28;20028;-73
2022/05/07 10:27:44;;;;;;;5.88;3.88;;;;;;;-144.65;100.00;64500.88;5048087;28;20036;-74
2022/05/07 10:30:23;;;;;;;5.57;3.90;;;;;;;-144.65;100.00;64500.88;5032500;28;20043;-73
2022/05/07 10:33:03;;;;;;;4.22;3.53;;;;;;;-144.65;100.00;64500.88;5042985;28;20097;-74
2022/05/07 10:35:52;;;;;;;5.05;3.95;;;;;;;-144.65;100.00;64500.88;5045485;28;20029;-74
2022/05/07 10:38:26;;;;;;;6.05;4.05;;;;;;;-144.65;100.00;64500.88;5046992;28;20037;-74
2022/05/07 10:41:15;;;;;;;6.55;4.43;;;;;;;-144.65;100.00;64500.88;5057978;28;20029;-86
2022/05/07 10:43:42;;;;;;;6.32;4.50;;;;;;;-144.65;100.00;64500.88;5063579;28;20041;-87
2022/05/07 10:46:14;;;;;;;6.13;4.47;;;;;;;-144.65;100.00;64500.88;5075602;28;20024;-85
2022/05/07 10:48:48;;;;;;;5.55;4.32;;;;;;;-144.65;100.00;64500.88;5060430;28;20432;-75
2022/05/07 10:51:20;;;;;;;7.05;4.75;;;;;;;-144.65;100.00;64500.88;5047699;28;20401;-75
2022/05/07 10:53:46;;;;;;;7.13;5.00;;;;;;;-144.65;100.00;64500.88;5044740;28;20021;-74
2022/05/07 10:56:17;;;;;;;7.65;4.30;;;;;;;-144.65;100.00;64500.88;5048585;28;20036;-76
2022/05/07 10:58:50;;;;;;;6.20;4.47;;;;;;;-144.65;100.00;64500.88;5047070;28;20044;-74
2022/05/07 11:01:17;;;;;;;6.78;4.30;;;;;;;-144.65;100.00;64500.88;5048546;28;20086;-76
2022/05/07 11:03:42;;;;;;;6.63;4.75;;;;;;;-144.65;100.00;64500.88;5047151;28;20048;-74
2022/05/07 11:06:08;;;;;;;9.65;4.80;;;;;;;-144.65;100.00;64500.88;5047100;28;20021;-76
2022/05/07 11:08:45;;;;;;;6.57;4.97;;;;;;;-144.65;100.00;64500.88;5047764;28;20020;-76
2022/05/07 11:11:11;;;;;;;7.15;4.35;;;;;;;-144.65;100.00;64500.88;5045005;28;20036;-77
2022/05/07 11:13:49;;;;;;;8.95;4.40;;;;;;;-144.65;100.00;64500.88;5047659;28;20029;-76
2022/05/07 11:16:18;;;;;;;5.00;3.53;;;;;;;-144.65;100.00;64500.88;5047531;28;20025;-76
2022/05/07 11:18:54;;;;;;;7.72;3.40;;;;;;;-144.65;100.00;64500.88;5045538;28;20033;-75
2022/05/07 11:21:25;;;;;;;4.63;3.47;;;;;;;-144.65;100.00;64500.88;5048100;28;20086;-75
2022/05/07 11:23:58;;;;;;;5.25;3.50;;;;;;;-144.65;100.00;64500.88;5049711;28;20040;-78
2022/05/07 11:26:25;;;;;;;5.50;4.15;;;;;;;-144.65;100.00;64500.88;5051135;28;20028;-75
2022/05/07 11:28:51;;;;;;;11.05;4.70;;;;;;;-144.65;100.00;64500.88;5049259;28;20036;-76
2022/05/07 11:31:30;;;;;;;9.50;4.15;;;;;;;-144.65;100.00;64500.88;5047688;28;20029;-76